sensor_id;sensor_type;location;lat;lon;timestamp;pressure;altitude;pressure_sealevel;temperature;humidity
64827;BME280;51265;53.972;12.286;2023-06-19T00:01:54;100624.38;;;14.85;93.82
64827;BME280;51265;53.972;12.286;2023-06-19T00:04:20;100625.84;;;14.74;nan
64827;BME280;51265;53.972;12.286;2023-06-19T00:06:47;100628.59;;;14.57;94.40
64827;BME280;51265;53.972;12.286;2023-06-19T00:09:14;100630.53;;;14.30;94.67
64827;BME280;51265;53.972;12.286;2023-06-19T00:11:40;100624.28;;;14.25;95.25
64827;BME280;51265;53.972;12.286;2023-06-19T00:14:06;100625.91;;;14.17;95.88
64827;BME280;51265;53.972;12.286;2023-06-19T00:16:33;100632.13;;;14.14;96.84
64827;BME280;51265;53.972;12.286;2023-06-19T00:18:59;100633.41;;;14.25;97.54
64827;BME280;51265;53.972;12.286;2023-06-19T00:21:25;100637.00;;;14.17;98.00
64827;BME280;51265;53.972;12.286;2023-06-19T00:23:52;100641.22;;;14.06;98.74
64827;BME280;51265;53.972;12.286;2023-06-19T00:26:19;100645.25;;;14.00;99.99
64827;BME280;51265;53.972;12.286;2023-06-19T00:28:54;100642.63;;;13.94;100.00
64827;BME280;51265;53.972;12.286;2023-06-19T00:31:21;100640.66;;;13.86;100.00
64827;BME280;51265;53.972;12.286;2023-06-19T00:33:49;100636.25;;;13.85;100.00
64827;BME280;51265;53.972;12.286;2023-06-19T00:36:16;100636.91;;;13.82;100.00
64827;BME280;51265;53.972;12.286;2023-06-19T00:38:47;100630.38;;;13.78;100.00
64827;BME280;51265;53.972;12.286;2023-06-19T00:41:15;100640.97;;;13.76;100.00
64827;BME280;51265;53.972;12.286;2023-06-19T00:43:43;100630.19;;;13.75;100.00
64827;BME280;51265;53.972;12.286;2023-06-19T00:46:10;100630.66;;;13.68;100.00
64827;BME280;51265;53.972;12.286;2023-06-19T00:48:38;100636.84;;;13.65;100.00
64827;BME280;51265;53.972;12.286;2023-06-19T00:51:04;100635.22;;;13.64;100.00
64827;BME280;51265;53.972;12.286;2023-06-19T00:53:32;100633.59;;;13.63;100.00
64827;BME280;51265;53.972;12.286;2023-06-19T00:56:00;100633.59;;;13.63;100.00
64827;BME280;51265;53.972;12.286;2023-06-19T00:58:26;100640.75;;;13.64;100.00
64827;BME280;51265;53.972;12.286;2023-06-19T01:00:53;100633.59;;;13.63;100.00
64827;BME280;51265;53.972;12.286;2023-06-19T01:03:19;100632.09;;;13.65;100.00
64827;BME280;51265;53.972;12.286;2023-06-19T01:05:47;100642.38;;;13.65;100.00
64827;BME280;51265;53.972;12.286;2023-06-19T01:11:07;100628.50;;;13.56;100.00
64827;BME280;51265;53.972;12.286;2023-06-19T01:13:47;100633.84;;;13.53;100.00
64827;BME280;51265;53.972;12.286;2023-06-19T01:16:15;100615.63;;;13.52;100.00
64827;BME280;51265;53.972;12.286;2023-06-19T01:18:43;100616.75;;;13.51;100.00
64827;BME280;51265;53.972;12.286;2023-06-19T01:21:16;100614.63;;;13.48;100.00
64827;BME280;51265;53.972;12.286;2023-06-19T01:23:43;100613.00;;;13.47;100.00
64827;BME280;51265;53.972;12.286;2023-06-19T01:26:11;100607.16;;;13.57;100.00
64827;BME280;51265;53.972;12.286;2023-06-19T01:28:44;100606.75;;;13.72;100.00
64827;BME280;51265;53.972;12.286;2023-06-19T01:31:13;100606.91;;;13.67;100.00
64827;BME280;51265;53.972;12.286;2023-06-19T01:33:42;100610.94;;;13.61;100.00
64827;BME280;51265;53.972;12.286;2023-06-19T01:36:10;100607.97;;;13.57;100.00
64827;BME280;51265;53.972;12.286;2023-06-19T01:38:37;100607.16;;;13.57;100.00
64827;BME280;51265;53.972;12.286;2023-06-19T01:41:04;100602.78;;;13.56;100.00
64827;BME280;51265;53.972;12.286;2023-06-19T01:43:32;100600.66;;;13.53;100.00
64827;BME280;51265;53.972;12.286;2023-06-19T01:45:59;100598.66;;;13.44;100.00
64827;BME280;51265;53.972;12.286;2023-06-19T01:48:27;100606.47;;;13.42;100.00
64827;BME280;51265;53.972;12.286;2023-06-19T01:50:53;100613.47;;;13.49;100.00
64827;BME280;51265;53.972;12.286;2023-06-19T01:53:19;100603.75;;;13.51;100.00
64827;BME280;51265;53.972;12.286;2023-06-19T01:55:46;100600.66;;;13.53;100.00
64827;BME280;51265;53.972;12.286;2023-06-19T01:58:12;100588.31;;;13.59;100.00
64827;BME280;51265;53.972;12.286;2023-06-19T02:00:38;100584.59;;;13.63;100.00
64827;BME280;51265;53.972;12.286;2023-06-19T02:03:05;100588.81;;;13.69;100.00
64827;BME280;51265;53.972;12.286;2023-06-19T02:05:31;100584.63;;;13.81;100.00
64827;BME280;51265;53.972;12.286;2023-06-19T02:07:57;100592.97;;;13.89;100.00
64827;BME280;51265;53.972;12.286;2023-06-19T02:10:23;100581.56;;;14.00;100.00
64827;BME280;51265;53.972;12.286;2023-06-19T02:12:50;100576.19;;;14.03;100.00
64827;BME280;51265;53.972;12.286;2023-06-19T02:15:16;100579.31;;;14.19;100.00
64827;BME280;51265;53.972;12.286;2023-06-19T02:17:42;100568.75;;;14.30;100.00
64827;BME280;51265;53.972;12.286;2023-06-19T02:20:09;100563.34;;;14.33;100.00
64827;BME280;51265;53.972;12.286;2023-06-19T02:22:38;100553.44;;;14.32;100.00
64827;BME280;51265;53.972;12.286;2023-06-19T02:25:05;100558.50;;;14.30;100.00
64827;BME280;51265;53.972;12.286;2023-06-19T02:27:31;100556.84;;;14.29;100.00
64827;BME280;51265;53.972;12.286;2023-06-19T02:29:59;100562.06;;;14.31;100.00
64827;BME280;51265;53.972;12.286;2023-06-19T02:32:25;100547.88;;;14.32;100.00
64827;BME280;51265;53.972;12.286;2023-06-19T02:34:52;100545.28;;;14.27;100.00
64827;BME280;51265;53.972;12.286;2023-06-19T02:37:18;100546.91;;;14.28;100.00
64827;BME280;51265;53.972;12.286;2023-06-19T02:39:44;100543.66;;;14.26;100.00
64827;BME280;51265;53.972;12.286;2023-06-19T02:42:11;100540.88;;;14.26;100.00
64827;BME280;51265;53.972;12.286;2023-06-19T02:44:37;100545.63;;;14.26;100.00
64827;BME280;51265;53.972;12.286;2023-06-19T02:47:04;100539.09;;;14.30;100.00
64827;BME280;51265;53.972;12.286;2023-06-19T02:49:30;100545.91;;;14.33;100.00
64827;BME280;51265;53.972;12.286;2023-06-19T02:51:57;100540.56;;;14.36;100.00
64827;BME280;51265;53.972;12.286;2023-06-19T02:54:23;100534.03;;;14.41;100.00
64827;BME280;51265;53.972;12.286;2023-06-19T02:56:49;100543.50;;;14.40;100.00
64827;BME280;51265;53.972;12.286;2023-06-19T02:59:17;100529.81;;;14.43;100.00
64827;BME280;51265;53.972;12.286;2023-06-19T03:01:43;100536.19;;;14.53;100.00
64827;BME280;51265;53.972;12.286;2023-06-19T03:04:13;100541.38;;;14.63;100.00
64827;BME280;51265;53.972;12.286;2023-06-19T03:06:39;100535.69;;;14.68;100.00
64827;BME280;51265;53.972;12.286;2023-06-19T03:09:06;100525.84;;;14.79;100.00
64827;BME280;51265;53.972;12.286;2023-06-19T03:11:39;100531.06;;;14.89;100.00
64827;BME280;51265;53.972;12.286;2023-06-19T03:14:06;100538.22;;;14.99;100.00
64827;BME280;51265;53.972;12.286;2023-06-19T03:16:34;100532.16;;;15.06;100.00
64827;BME280;51265;53.972;12.286;2023-06-19T03:19:01;100528.19;;;15.15;100.00
64827;BME280;51265;53.972;12.286;2023-06-19T03:21:27;100530.75;;;15.29;99.34
64827;BME280;51265;53.972;12.286;2023-06-19T03:23:54;100532.22;;;15.35;98.48
64827;BME280;51265;53.972;12.286;2023-06-19T03:26:22;100529.75;;;15.34;98.24
64827;BME280;51265;53.972;12.286;2023-06-19T03:28:48;100540.72;;;15.30;98.29
64827;BME280;51265;53.972;12.286;2023-06-19T03:31:15;100542.03;;;15.24;98.63
64827;BME280;51265;53.972;12.286;2023-06-19T03:33:41;100547.13;;;15.22;99.16
64827;BME280;51265;53.972;12.286;2023-06-19T03:36:09;100548.25;;;15.21;99.82
64827;BME280;51265;53.972;12.286;2023-06-19T03:38:48;100550.06;;;15.17;100.00
64827;BME280;51265;53.972;12.286;2023-06-19T03:41:19;100555.13;;;15.15;100.00
64827;BME280;51265;53.972;12.286;2023-06-19T03:43:46;100559.53;;;15.16;100.00
64827;BME280;51265;53.972;12.286;2023-06-19T03:46:12;100555.13;;;15.15;100.00
64827;BME280;51265;53.972;12.286;2023-06-19T03:48:39;100557.41;;;15.13;100.00
64827;BME280;51265;53.972;12.286;2023-06-19T03:51:05;100559.06;;;15.14;100.00
64827;BME280;51265;53.972;12.286;2023-06-19T03:53:31;100570.16;;;15.14;100.00
64827;BME280;51265;53.972;12.286;2023-06-19T03:55:57;100564.88;;;15.21;100.00
64827;BME280;51265;53.972;12.286;2023-06-19T03:58:23;100560.31;;;15.25;100.00
64827;BME280;51265;53.972;12.286;2023-06-19T04:00:49;100568.09;;;15.40;100.00
64827;BME280;51265;53.972;12.286;2023-06-19T04:03:15;100555.81;;;15.50;100.00
64827;BME280;51265;53.972;12.286;2023-06-19T04:05:42;100568.34;;;15.65;99.23
64827;BME280;51265;53.972;12.286;2023-06-19T04:08:08;100563.94;;;15.93;97.90
64827;BME280;51265;53.972;12.286;2023-06-19T04:10:34;100555.97;;;16.13;96.42
64827;BME280;51265;53.972;12.286;2023-06-19T04:13:00;100550.41;;;16.34;94.93
64827;BME280;51265;53.972;12.286;2023-06-19T04:15:26;100538.31;;;16.51;93.95
64827;BME280;51265;53.972;12.286;2023-06-19T04:17:53;100533.31;;;16.65;92.58
64827;BME280;51265;53.972;12.286;2023-06-19T04:20:19;100529.50;;;16.69;92.10
64827;BME280;51265;53.972;12.286;2023-06-19T04:22:47;100534.41;;;16.73;92.03
64827;BME280;51265;53.972;12.286;2023-06-19T04:25:13;100539.25;;;16.76;91.71
64827;BME280;51265;53.972;12.286;2023-06-19T04:27:39;100542.66;;;16.81;91.92
64827;BME280;51265;53.972;12.286;2023-06-19T04:30:06;100538.84;;;16.86;91.82
64827;BME280;51265;53.972;12.286;2023-06-19T04:32:33;100538.25;;;16.92;91.46
64827;BME280;51265;53.972;12.286;2023-06-19T04:35:01;100540.16;;;17.01;91.45
64827;BME280;51265;53.972;12.286;2023-06-19T04:37:27;100544.34;;;17.07;91.04
64827;BME280;51265;53.972;12.286;2023-06-19T04:39:53;100551.78;;;17.15;91.66
64827;BME280;51265;53.972;12.286;2023-06-19T04:42:19;100554.34;;;17.20;91.77
64827;BME280;51265;53.972;12.286;2023-06-19T04:44:46;100544.41;;;17.31;91.99
64827;BME280;51265;53.972;12.286;2023-06-19T04:47:13;100557.59;;;17.47;91.63
64827;BME280;51265;53.972;12.286;2023-06-19T04:49:40;100553.91;;;17.55;91.29
64827;BME280;51265;53.972;12.286;2023-06-19T04:52:06;100549.75;;;17.73;90.64
64827;BME280;51265;53.972;12.286;2023-06-19T04:54:32;100552.56;;;17.85;89.64
64827;BME280;51265;53.972;12.286;2023-06-19T04:56:58;100547.91;;;17.89;88.29
64827;BME280;51265;53.972;12.286;2023-06-19T04:59:25;100545.81;;;17.99;87.01
64827;BME280;51265;53.972;12.286;2023-06-19T05:01:51;100537.88;;;18.01;86.67
64827;BME280;51265;53.972;12.286;2023-06-19T05:04:20;100539.31;;;17.95;86.43
64827;BME280;51265;53.972;12.286;2023-06-19T05:06:49;100533.03;;;17.98;86.36
64827;BME280;51265;53.972;12.286;2023-06-19T05:09:15;100527.41;;;18.10;86.21
64827;BME280;51265;53.972;12.286;2023-06-19T05:11:41;100536.22;;;18.24;86.13
64827;BME280;51265;53.972;12.286;2023-06-19T05:14:07;100540.56;;;18.50;85.77
64827;BME280;51265;53.972;12.286;2023-06-19T05:16:34;100533.03;;;18.78;84.73
64827;BME280;51265;53.972;12.286;2023-06-19T05:19:00;100524.88;;;19.17;83.50
64827;BME280;51265;53.972;12.286;2023-06-19T05:21:26;100521.34;;;19.52;81.80
64827;BME280;51265;53.972;12.286;2023-06-19T05:23:52;100510.34;;;19.90;80.04
64827;BME280;51265;53.972;12.286;2023-06-19T05:26:19;100507.88;;;20.24;78.46
64827;BME280;51265;53.972;12.286;2023-06-19T05:28:46;100500.69;;;20.62;76.74
64827;BME280;51265;53.972;12.286;2023-06-19T05:31:13;100490.44;;;20.93;74.77
64827;BME280;51265;53.972;12.286;2023-06-19T05:33:40;100484.91;;;21.19;73.76
64827;BME280;51265;53.972;12.286;2023-06-19T05:36:07;100480.59;;;21.48;72.20
64827;BME280;51265;53.972;12.286;2023-06-19T05:38:33;100476.03;;;21.63;71.06
64827;BME280;51265;53.972;12.286;2023-06-19T05:40:59;100458.56;;;21.73;69.92
64827;BME280;51265;53.972;12.286;2023-06-19T05:43:26;100460.38;;;21.88;69.05
64827;BME280;51265;53.972;12.286;2023-06-19T05:45:53;100460.50;;;21.96;68.79
64827;BME280;51265;53.972;12.286;2023-06-19T05:48:20;100460.56;;;22.03;68.83
64827;BME280;51265;53.972;12.286;2023-06-19T05:50:46;100453.00;;;22.07;67.53
64827;BME280;51265;53.972;12.286;2023-06-19T05:53:12;100442.47;;;21.97;67.89
64827;BME280;51265;53.972;12.286;2023-06-19T05:55:38;100439.81;;;21.77;67.26
64827;BME280;51265;53.972;12.286;2023-06-19T05:58:04;100449.63;;;21.64;67.65
64827;BME280;51265;53.972;12.286;2023-06-19T06:00:30;100452.06;;;21.66;67.86
64827;BME280;51265;53.972;12.286;2023-06-19T06:02:58;100460.94;;;21.71;68.10
64827;BME280;51265;53.972;12.286;2023-06-19T06:05:27;100463.47;;;21.80;68.37
64827;BME280;51265;53.972;12.286;2023-06-19T06:07:56;100473.22;;;21.89;68.53
64827;BME280;51265;53.972;12.286;2023-06-19T06:10:23;100469.38;;;22.01;68.34
64827;BME280;51265;53.972;12.286;2023-06-19T06:12:51;100475.59;;;22.14;68.32
64827;BME280;51265;53.972;12.286;2023-06-19T06:15:17;100475.03;;;22.35;68.10
64827;BME280;51265;53.972;12.286;2023-06-19T06:17:43;100470.72;;;22.45;68.17
64827;BME280;51265;53.972;12.286;2023-06-19T06:20:10;100483.66;;;22.49;68.27
64827;BME280;51265;53.972;12.286;2023-06-19T06:22:42;100484.50;;;22.57;68.28
64827;BME280;51265;53.972;12.286;2023-06-19T06:25:09;100488.69;;;22.70;68.31
64827;BME280;51265;53.972;12.286;2023-06-19T06:27:37;100489.22;;;22.83;67.36
64827;BME280;51265;53.972;12.286;2023-06-19T06:30:04;100485.31;;;22.91;66.50
64827;BME280;51265;53.972;12.286;2023-06-19T06:32:30;100480.28;;;23.11;65.54
64827;BME280;51265;53.972;12.286;2023-06-19T06:34:57;100474.69;;;23.15;64.86
64827;BME280;51265;53.972;12.286;2023-06-19T06:37:24;100475.56;;;23.22;65.00
64827;BME280;51265;53.972;12.286;2023-06-19T06:39:51;100466.78;;;23.27;64.65
64827;BME280;51265;53.972;12.286;2023-06-19T06:42:17;100465.22;;;23.33;64.46
64827;BME280;51265;53.972;12.286;2023-06-19T06:44:44;100464.03;;;23.34;64.60
64827;BME280;51265;53.972;12.286;2023-06-19T06:47:11;100466.06;;;23.38;64.24
64827;BME280;51265;53.972;12.286;2023-06-19T06:49:37;100474.34;;;23.23;64.37
64827;BME280;51265;53.972;12.286;2023-06-19T06:52:04;100477.56;;;23.22;64.69
64827;BME280;51265;53.972;12.286;2023-06-19T06:54:30;100484.78;;;23.23;64.68
64827;BME280;51265;53.972;12.286;2023-06-19T06:56:57;100487.84;;;23.07;64.73
64827;BME280;51265;53.972;12.286;2023-06-19T06:59:24;100484.59;;;23.01;64.92
64827;BME280;51265;53.972;12.286;2023-06-19T07:01:51;100491.28;;;22.90;65.10
64827;BME280;51265;53.972;12.286;2023-06-19T07:04:17;100492.34;;;22.74;65.70
64827;BME280;51265;53.972;12.286;2023-06-19T07:06:43;100497.78;;;22.60;66.47
64827;BME280;51265;53.972;12.286;2023-06-19T07:09:10;100510.88;;;22.49;66.90
64827;BME280;51265;53.972;12.286;2023-06-19T07:11:36;100515.56;;;22.37;67.28
64827;BME280;51265;53.972;12.286;2023-06-19T07:14:02;100518.28;;;22.30;67.71
64827;BME280;51265;53.972;12.286;2023-06-19T07:16:28;100513.69;;;22.19;68.28
64827;BME280;51265;53.972;12.286;2023-06-19T07:18:54;100524.75;;;22.08;68.40
64827;BME280;51265;53.972;12.286;2023-06-19T07:21:21;100530.31;;;22.04;68.92
64827;BME280;51265;53.972;12.286;2023-06-19T07:23:47;100534.69;;;22.02;69.03
64827;BME280;51265;53.972;12.286;2023-06-19T07:26:14;100535.34;;;21.92;69.36
64827;BME280;51265;53.972;12.286;2023-06-19T07:28:41;100543.69;;;21.88;69.58
64827;BME280;51265;53.972;12.286;2023-06-19T07:31:07;100548.38;;;21.80;70.00
64827;BME280;51265;53.972;12.286;2023-06-19T07:33:34;100549.03;;;21.70;70.16
64827;BME280;51265;53.972;12.286;2023-06-19T07:36:01;100549.78;;;21.67;70.46
64827;BME280;51265;53.972;12.286;2023-06-19T07:38:28;100553.72;;;21.62;71.11
64827;BME280;51265;53.972;12.286;2023-06-19T07:40:55;100564.78;;;21.55;71.64
64827;BME280;51265;53.972;12.286;2023-06-19T07:43:21;100574.31;;;21.51;72.20
64827;BME280;51265;53.972;12.286;2023-06-19T07:45:50;100586.28;;;21.48;72.62
64827;BME280;51265;53.972;12.286;2023-06-19T07:48:16;100585.53;;;21.51;72.87
64827;BME280;51265;53.972;12.286;2023-06-19T07:50:42;100597.63;;;21.55;73.28
64827;BME280;51265;53.972;12.286;2023-06-19T07:53:09;100592.88;;;21.59;73.26
64827;BME280;51265;53.972;12.286;2023-06-19T07:55:36;100587.41;;;21.66;73.19
64827;BME280;51265;53.972;12.286;2023-06-19T07:58:02;100587.50;;;21.73;73.28
64827;BME280;51265;53.972;12.286;2023-06-19T08:00:28;100577.16;;;21.77;73.22
64827;BME280;51265;53.972;12.286;2023-06-19T08:02:54;100571.94;;;21.76;72.76
64827;BME280;51265;53.972;12.286;2023-06-19T08:05:20;100577.59;;;21.79;72.98
64827;BME280;51265;53.972;12.286;2023-06-19T08:07:47;100575.06;;;21.97;72.79
64827;BME280;51265;53.972;12.286;2023-06-19T08:10:13;100569.19;;;22.06;72.36
64827;BME280;51265;53.972;12.286;2023-06-19T08:12:41;100566.72;;;22.27;72.24
64827;BME280;51265;53.972;12.286;2023-06-19T08:15:08;100566.81;;;22.34;72.21
64827;BME280;51265;53.972;12.286;2023-06-19T08:17:34;100564.63;;;22.51;71.82
64827;BME280;51265;53.972;12.286;2023-06-19T08:20:03;100562.00;;;22.65;71.42
64827;BME280;51265;53.972;12.286;2023-06-19T08:22:31;100549.50;;;22.59;71.00
64827;BME280;51265;53.972;12.286;2023-06-19T08:24:57;100554.34;;;22.62;70.77
64827;BME280;51265;53.972;12.286;2023-06-19T08:27:23;100550.31;;;22.59;71.18
64827;BME280;51265;53.972;12.286;2023-06-19T08:29:50;100544.69;;;22.59;70.71
64827;BME280;51265;53.972;12.286;2023-06-19T08:32:16;100540.31;;;22.62;70.88
64827;BME280;51265;53.972;12.286;2023-06-19T08:34:42;100545.50;;;22.60;70.95
64827;BME280;51265;53.972;12.286;2023-06-19T08:37:08;100549.91;;;22.57;70.89
64827;BME280;51265;53.972;12.286;2023-06-19T08:39:35;100534.53;;;22.48;70.58
64827;BME280;51265;53.972;12.286;2023-06-19T08:42:08;100546.13;;;22.46;70.84
64827;BME280;51265;53.972;12.286;2023-06-19T08:44:35;100541.22;;;22.40;71.27
64827;BME280;51265;53.972;12.286;2023-06-19T08:47:02;100538.34;;;22.32;71.34
64827;BME280;51265;53.972;12.286;2023-06-19T08:49:30;100537.72;;;22.16;71.48
64827;BME280;51265;53.972;12.286;2023-06-19T08:51:57;100543.34;;;22.16;71.92
64827;BME280;51265;53.972;12.286;2023-06-19T08:54:23;100545.34;;;22.19;71.14
64827;BME280;51265;53.972;12.286;2023-06-19T08:56:51;100542.44;;;22.12;71.60
64827;BME280;51265;53.972;12.286;2023-06-19T08:59:20;100550.75;;;22.05;71.72
64827;BME280;51265;53.972;12.286;2023-06-19T09:01:48;100555.16;;;22.06;72.12
64827;BME280;51265;53.972;12.286;2023-06-19T09:04:22;100562.38;;;22.07;72.29
64827;BME280;51265;53.972;12.286;2023-06-19T09:07:00;100551.09;;;22.00;72.09
64827;BME280;51265;53.972;12.286;2023-06-19T09:09:30;100556.78;;;22.07;72.34
64827;BME280;51265;53.972;12.286;2023-06-19T09:12:01;100547.75;;;22.17;72.19
64827;BME280;51265;53.972;12.286;2023-06-19T09:14:46;100551.81;;;22.23;72.22
64827;BME280;51265;53.972;12.286;2023-06-19T09:17:17;100562.50;;;22.41;71.91
64827;BME280;51265;53.972;12.286;2023-06-19T09:19:50;100548.88;;;22.43;71.31
64827;BME280;51265;53.972;12.286;2023-06-19T09:22:18;100555.09;;;22.59;70.98
64827;BME280;51265;53.972;12.286;2023-06-19T09:24:44;100545.69;;;22.78;70.43
64827;BME280;51265;53.972;12.286;2023-06-19T09:27:15;100547.63;;;23.04;70.19
64827;BME280;51265;53.972;12.286;2023-06-19T09:29:46;100543.09;;;23.36;68.77
64827;BME280;51265;53.972;12.286;2023-06-19T09:32:26;100528.88;;;23.63;67.87
64827;BME280;51265;53.972;12.286;2023-06-19T09:34:56;100521.91;;;23.98;66.84
64827;BME280;51265;53.972;12.286;2023-06-19T09:37:29;100518.06;;;24.27;66.18
64827;BME280;51265;53.972;12.286;2023-06-19T09:40:04;100510.19;;;24.62;65.43
64827;BME280;51265;53.972;12.286;2023-06-19T09:42:38;100500.16;;;24.71;64.88
64827;BME280;51265;53.972;12.286;2023-06-19T09:45:11;100505.34;;;24.62;65.56
64827;BME280;51265;53.972;12.286;2023-06-19T09:47:47;100514.59;;;24.59;66.11
64827;BME280;51265;53.972;12.286;2023-06-19T09:50:15;100524.63;;;24.46;66.44
64827;BME280;51265;53.972;12.286;2023-06-19T09:52:44;100527.69;;;24.23;66.59
64827;BME280;51265;53.972;12.286;2023-06-19T09:55:12;100527.91;;;23.93;67.45
64827;BME280;51265;53.972;12.286;2023-06-19T09:57:40;100537.00;;;23.72;68.18
64827;BME280;51265;53.972;12.286;2023-06-19T10:00:08;100546.19;;;23.65;68.30
64827;BME280;51265;53.972;12.286;2023-06-19T10:02:44;100565.44;;;23.63;68.94
64827;BME280;51265;53.972;12.286;2023-06-19T10:05:14;100569.16;;;23.71;69.63
64827;BME280;51265;53.972;12.286;2023-06-19T10:07:45;100573.31;;;23.95;69.75
64827;BME280;51265;53.972;12.286;2023-06-19T10:10:22;100565.50;;;24.32;68.46
64827;BME280;51265;53.972;12.286;2023-06-19T10:12:49;100543.16;;;24.61;66.82
64827;BME280;51265;53.972;12.286;2023-06-19T10:15:17;100534.41;;;24.95;65.49
64827;BME280;51265;53.972;12.286;2023-06-19T10:17:50;100524.75;;;25.03;64.89
64827;BME280;51265;53.972;12.286;2023-06-19T10:22:51;100508.75;;;25.25;64.31
64827;BME280;51265;53.972;12.286;2023-06-19T10:25:24;100501.88;;;25.19;63.78
64827;BME280;51265;53.972;12.286;2023-06-19T10:27:53;100497.41;;;25.07;64.22
64827;BME280;51265;53.972;12.286;2023-06-19T10:30:20;100483.72;;;25.05;63.89
64827;BME280;51265;53.972;12.286;2023-06-19T10:32:47;100489.34;;;24.95;64.14
64827;BME280;51265;53.972;12.286;2023-06-19T10:35:15;100479.69;;;24.96;64.16
64827;BME280;51265;53.972;12.286;2023-06-19T10:37:42;100479.69;;;24.96;64.14
64827;BME280;51265;53.972;12.286;2023-06-19T10:40:09;100486.13;;;24.96;64.11
64827;BME280;51265;53.972;12.286;2023-06-19T10:42:36;100471.69;;;25.08;63.67
64827;BME280;51265;53.972;12.286;2023-06-19T10:45:05;100461.22;;;25.23;62.91
64827;BME280;51265;53.972;12.286;2023-06-19T10:47:32;100453.16;;;25.22;62.77
64827;BME280;51265;53.972;12.286;2023-06-19T10:49:58;100467.28;;;25.25;62.99
64827;BME280;51265;53.972;12.286;2023-06-19T10:52:28;100471.69;;;25.26;63.16
64827;BME280;51265;53.972;12.286;2023-06-19T10:54:54;100471.66;;;25.41;63.34
64827;BME280;51265;53.972;12.286;2023-06-19T10:57:44;100466.06;;;25.30;63.75
64827;BME280;51265;53.972;12.286;2023-06-19T11:00:11;100458.41;;;25.30;63.09
64827;BME280;51265;53.972;12.286;2023-06-19T11:02:41;100455.56;;;25.45;62.87
64827;BME280;51265;53.972;12.286;2023-06-19T11:05:10;100445.06;;;25.67;61.47
64827;BME280;51265;53.972;12.286;2023-06-19T11:07:37;100446.25;;;25.83;61.28
64827;BME280;51265;53.972;12.286;2023-06-19T11:10:04;100436.06;;;26.18;60.14
64827;BME280;51265;53.972;12.286;2023-06-19T11:12:31;100430.19;;;26.61;59.50
64827;BME280;51265;53.972;12.286;2023-06-19T11:14:58;100410.69;;;26.81;58.13
64827;BME280;51265;53.972;12.286;2023-06-19T11:17:25;100393.69;;;26.88;57.14
64827;BME280;51265;53.972;12.286;2023-06-19T11:19:51;100395.66;;;26.95;57.28
64827;BME280;51265;53.972;12.286;2023-06-19T11:22:17;100395.44;;;26.71;56.58
64827;BME280;51265;53.972;12.286;2023-06-19T11:24:47;100390.69;;;26.54;57.53
64827;BME280;51265;53.972;12.286;2023-06-19T11:27:18;100386.03;;;26.22;57.38
64827;BME280;51265;53.972;12.286;2023-06-19T11:29:44;100377.25;;;26.06;56.66
64827;BME280;51265;53.972;12.286;2023-06-19T11:32:16;100389.25;;;26.21;56.91
64827;BME280;51265;53.972;12.286;2023-06-19T11:34:43;100389.06;;;26.60;55.90
64827;BME280;51265;53.972;12.286;2023-06-19T11:39:43;100370.53;;;27.49;53.91
64827;BME280;51265;53.972;12.286;2023-06-19T11:42:09;100357.88;;;27.95;52.91
64827;BME280;51265;53.972;12.286;2023-06-19T11:45:03;100346.81;;;28.35;51.97
64827;BME280;51265;53.972;12.286;2023-06-19T11:47:34;100339.19;;;28.59;51.51
64827;BME280;51265;53.972;12.286;2023-06-19T11:50:03;100321.56;;;28.47;51.20
64827;BME280;51265;53.972;12.286;2023-06-19T11:52:30;100301.72;;;28.20;50.84
64827;BME280;51265;53.972;12.286;2023-06-19T11:54:57;100307.97;;;28.08;50.87
64827;BME280;51265;53.972;12.286;2023-06-19T11:57:24;100289.88;;;28.02;50.03
64827;BME280;51265;53.972;12.286;2023-06-19T11:59:50;100288.19;;;28.04;49.81
64827;BME280;51265;53.972;12.286;2023-06-19T12:02:17;100293.59;;;28.22;49.33
64827;BME280;51265;53.972;12.286;2023-06-19T12:04:43;100286.78;;;28.47;49.45
64827;BME280;51265;53.972;12.286;2023-06-19T12:07:09;100305.69;;;29.00;48.83
64827;BME280;51265;53.972;12.286;2023-06-19T12:09:35;100290.78;;;28.96;48.38
64827;BME280;51265;53.972;12.286;2023-06-19T12:12:02;100305.00;;;29.16;48.93
64827;BME280;51265;53.972;12.286;2023-06-19T12:14:28;100323.22;;;29.39;49.51
64827;BME280;51265;53.972;12.286;2023-06-19T12:16:54;100303.84;;;29.34;48.71
64827;BME280;51265;53.972;12.286;2023-06-19T12:19:20;100298.47;;;28.96;48.98
64827;BME280;51265;53.972;12.286;2023-06-19T12:21:46;100305.00;;;28.69;49.44
64827;BME280;51265;53.972;12.286;2023-06-19T12:24:13;100287.06;;;28.25;49.68
64827;BME280;51265;53.972;12.286;2023-06-19T12:26:39;100298.22;;;28.09;50.55
64827;BME280;51265;53.972;12.286;2023-06-19T12:29:06;100285.66;;;27.83;49.74
64827;BME280;51265;53.972;12.286;2023-06-19T12:31:34;100286.44;;;27.53;49.91
64827;BME280;51265;53.972;12.286;2023-06-19T12:34:00;100300.31;;;27.40;50.83
64827;BME280;51265;53.972;12.286;2023-06-19T12:36:29;100306.97;;;27.26;51.03
64827;BME280;51265;53.972;12.286;2023-06-19T12:38:58;100312.59;;;27.26;51.07
64827;BME280;51265;53.972;12.286;2023-06-19T12:41:25;100322.13;;;27.43;50.91
64827;BME280;51265;53.972;12.286;2023-06-19T12:43:51;100329.19;;;27.59;50.62
64827;BME280;51265;53.972;12.286;2023-06-19T12:46:17;100331.56;;;27.98;50.77
64827;BME280;51265;53.972;12.286;2023-06-19T12:48:43;100329.19;;;28.23;50.03